Time;durP1;ratioP1;P1;durP2;ratioP2;P2;SDS_P1;SDS_P2;PMS_P1;PMS_P2;Temp;Humidity;BMP_temperature;BMP_pressure;BME280_temperature;BME280_humidity;BME280_pressure;Samples;Min_cycle;Max_cycle;Signal;HPM_P1;HPM_P2
2022/06/26 00:01:48;;;;;;;8.35;1.70;;;;;;;50.88;10.27;100558.06;5076904;28;20035;-61
2022/06/26 00:04:15;;;;;;;9.38;1.90;;;;;;;49.37;10.96;100559.22;5086419;28;20035;-60
2022/06/26 00:06:42;;;;;;;7.28;1.98;;;;;;;49.95;11.09;100559.63;5081406;28;20120;-61
2022/06/26 00:09:08;;;;;;;5.68;1.80;;;;;;;50.17;10.30;100559.34;5090099;28;20080;-63
2022/06/26 00:11:35;;;;;;;7.50;1.85;;;;;;;49.55;11.01;100556.38;5095222;28;20047;-63
2022/06/26 00:14:02;;;;;;;4.82;1.60;;;;;;;49.83;10.94;100550.31;5094930;28;20103;-61
2022/06/26 00:16:29;;;;;;;24.45;2.47;;;;;;;49.94;11.03;100557.28;5093497;28;20180;-61
2022/06/26 00:18:56;;;;;;;9.55;2.00;;;;;;;49.33;11.75;100542.19;5095131;28;20016;-62
2022/06/26 00:21:23;;;;;;;10.05;2.20;;;;;;;47.31;12.98;100544.53;5093091;28;20024;-63
2022/06/26 00:23:49;;;;;;;9.30;1.95;;;;;;;48.46;11.86;100543.88;5102624;28;20114;-60
2022/06/26 00:26:16;;;;;;;6.82;1.90;;;;;;;48.83;11.34;100548.34;5110921;28;20039;-60
2022/06/26 00:28:43;;;;;;;29.98;2.35;;;;;;;49.11;11.50;100539.50;5098556;28;20024;-62
2022/06/26 00:31:10;;;;;;;9.18;2.00;;;;;;;49.00;11.49;100541.16;5112822;27;20072;-62
2022/06/26 00:33:36;;;;;;;9.30;1.77;;;;;;;48.30;11.64;100539.00;5106830;28;20044;-61
2022/06/26 00:36:03;;;;;;;9.27;1.80;;;;;;;47.78;11.97;100536.84;5104303;28;20032;-60
2022/06/26 00:38:30;;;;;;;14.50;2.25;;;;;;;48.37;11.83;100538.44;5097997;28;20678;-61
2022/06/26 00:40:56;;;;;;;4.82;1.60;;;;;;;47.54;12.62;100529.59;5110247;28;20485;-62
2022/06/26 00:43:28;;;;;;;8.73;1.80;;;;;;;46.37;12.70;100538.94;5098370;28;20044;-61
2022/06/26 00:45:55;;;;;;;5.35;1.50;;;;;;;45.87;13.08;100537.94;5103398;28;20054;-62
2022/06/26 00:48:22;;;;;;;5.78;1.60;;;;;;;45.49;13.77;100529.38;5105624;28;20019;-61
2022/06/26 00:50:49;;;;;;;9.20;2.08;;;;;;;46.06;13.74;100536.22;5095132;28;20036;-61
2022/06/26 00:53:16;;;;;;;4.97;1.77;;;;;;;46.53;13.21;100533.78;5109613;28;20373;-61
2022/06/26 00:55:42;;;;;;;8.77;1.90;;;;;;;46.75;12.60;100521.50;5101205;28;20111;-61
2022/06/26 00:58:10;;;;;;;5.43;1.70;;;;;;;46.49;13.34;100533.22;5101621;28;20058;-61
2022/06/26 01:00:37;;;;;;;6.35;1.60;;;;;;;47.26;11.99;100528.84;5108605;28;20035;-61
2022/06/26 01:03:04;;;;;;;11.80;2.38;;;;;;;46.67;12.72;100526.97;5110894;28;20347;-62
2022/06/26 01:05:30;;;;;;;10.10;2.10;;;;;;;46.80;12.43;100527.28;5098357;28;20043;-61
2022/06/26 01:07:57;;;;;;;7.75;1.92;;;;;;;45.70;13.49;100532.13;5102044;28;20062;-61
2022/06/26 01:10:24;;;;;;;11.77;1.58;;;;;;;46.46;13.02;100531.38;5105416;28;20063;-62
2022/06/26 01:12:52;;;;;;;21.77;2.80;;;;;;;46.49;12.57;100533.22;5096082;28;20032;-60
2022/06/26 01:15:20;;;;;;;10.07;2.13;;;;;;;45.84;13.04;100541.84;5108804;28;20486;-60
2022/06/26 01:17:47;;;;;;;7.05;1.50;;;;;;;45.82;13.63;100538.72;5100362;28;20042;-60
2022/06/26 01:20:15;;;;;;;10.05;1.50;;;;;;;45.32;13.64;100539.16;5098634;28;20093;-59
2022/06/26 01:22:42;;;;;;;9.98;1.70;;;;;;;45.66;13.48;100538.09;5090663;28;20027;-59
2022/06/26 01:25:09;;;;;;;6.15;1.77;;;;;;;45.05;14.08;100546.22;5095069;28;20482;-60
2022/06/26 01:27:43;;;;;;;7.65;1.92;;;;;;;44.38;14.39;100540.59;5104059;28;20024;-60
2022/06/26 01:30:13;;;;;;;10.07;2.00;;;;;;;44.45;14.68;100545.88;5091402;28;20043;-60
2022/06/26 01:32:42;;;;;;;8.38;1.98;;;;;;;44.16;14.93;100552.56;5107169;28;20052;-60
2022/06/26 01:35:10;;;;;;;10.65;2.75;;;;;;;43.91;15.03;100554.06;5094782;28;20039;-60
2022/06/26 01:37:41;;;;;;;10.15;2.85;;;;;;;43.70;15.55;100544.69;5103939;28;20043;-59
2022/06/26 01:40:08;;;;;;;8.68;3.20;;;;;;;43.49;15.69;100550.84;5057837;28;20031;-60
2022/06/26 01:42:35;;;;;;;9.50;2.95;;;;;;;43.50;15.85;100546.69;5090257;28;20078;-60
2022/06/26 01:45:02;;;;;;;7.28;2.90;;;;;;;43.31;16.58;100549.81;5090066;28;20062;-60
2022/06/26 01:47:29;;;;;;;15.75;4.32;;;;;;;42.66;17.79;100548.91;5090287;28;20367;-60
2022/06/26 01:49:56;;;;;;;12.68;4.53;;;;;;;42.29;18.47;100557.00;5089900;28;20057;-59
2022/06/26 01:52:23;;;;;;;13.52;3.78;;;;;;;42.16;17.96;100568.66;5090846;28;20085;-60
2022/06/26 01:54:50;;;;;;;10.23;3.10;;;;;;;41.92;18.31;100554.38;5090867;28;20036;-59
2022/06/26 01:57:17;;;;;;;23.02;3.50;;;;;;;41.48;19.24;100559.06;5090478;28;20024;-60
2022/06/26 01:59:47;;;;;;;9.95;3.58;;;;;;;41.45;19.19;100560.00;5092150;28;20036;-59
2022/06/26 02:02:18;;;;;;;10.73;4.00;;;;;;;41.35;19.45;100576.41;5088530;28;20072;-60
2022/06/26 02:04:44;;;;;;;30.90;3.55;;;;;;;41.26;19.85;100573.56;5090216;28;20044;-60
2022/06/26 02:07:11;;;;;;;11.00;2.80;;;;;;;41.08;20.18;100565.03;5091430;28;20056;-60
2022/06/26 02:15:17;;;;;;;14.50;2.42;;;;;;;40.62;20.76;100574.47;5076058;28;20040;-60
2022/06/26 02:17:44;;;;;;;6.97;1.90;;;;;;;40.40;21.17;100586.03;5097801;28;20063;-60
2022/06/26 02:20:12;;;;;;;10.02;2.10;;;;;;;40.41;21.48;100599.00;5102035;28;20097;-59
2022/06/26 02:22:41;;;;;;;13.82;2.30;;;;;;;40.34;22.29;100593.56;5089797;28;20850;-61
2022/06/26 02:25:09;;;;;;;11.18;1.95;;;;;;;40.25;22.74;100607.81;5090121;28;20127;-61
2022/06/26 02:27:38;;;;;;;10.68;2.10;;;;;;;40.08;22.80;100601.63;5090818;28;20166;-61
2022/06/26 02:30:05;;;;;;;26.15;2.95;;;;;;;39.96;22.77;100599.69;5094094;28;20414;-60
2022/06/26 02:32:35;;;;;;;9.35;1.58;;;;;;;39.81;22.81;100602.31;5086607;28;20044;-62
2022/06/26 02:35:03;;;;;;;8.63;1.92;;;;;;;39.68;23.24;100604.50;5091757;28;20055;-60
2022/06/26 02:37:32;;;;;;;8.60;1.83;;;;;;;39.45;23.30;100608.63;5090069;28;20122;-62
2022/06/26 02:39:59;;;;;;;9.63;2.13;;;;;;;39.33;23.83;100611.59;5092477;28;20595;-62
2022/06/26 02:42:26;;;;;;;15.57;2.58;;;;;;;39.22;23.84;100617.69;5092667;28;20522;-61
2022/06/26 02:44:52;;;;;;;15.48;2.13;;;;;;;39.15;24.35;100615.13;5110507;28;20503;-61
2022/06/26 02:47:19;;;;;;;15.25;2.53;;;;;;;39.05;23.76;100622.75;5098777;28;20055;-62
2022/06/26 02:49:46;;;;;;;11.95;2.55;;;;;;;38.93;23.81;100632.13;5104782;28;20024;-62
2022/06/26 02:52:13;;;;;;;12.40;2.47;;;;;;;38.97;24.86;100632.81;5098860;28;20096;-62
2022/06/26 02:54:40;;;;;;;15.82;2.95;;;;;;;38.77;25.24;100638.81;5109841;28;20034;-62
2022/06/26 02:57:07;;;;;;;18.85;3.97;;;;;;;38.71;25.35;100639.88;5097582;28;20032;-62
2022/06/26 02:59:35;;;;;;;21.35;3.35;;;;;;;38.56;25.53;100651.72;5109421;28;20020;-62
2022/06/26 03:02:02;;;;;;;26.58;3.47;;;;;;;38.42;25.63;100640.84;5100076;27;20057;-62
2022/06/26 03:04:53;;;;;;;22.38;3.60;;;;;;;38.31;25.76;100651.78;5100177;28;20024;-62
2022/06/26 03:07:20;;;;;;;19.10;2.90;;;;;;;38.18;25.93;100657.50;5098850;28;20043;-62
2022/06/26 03:09:48;;;;;;;24.40;3.20;;;;;;;38.09;25.98;100658.16;5111982;28;20028;-63
2022/06/26 03:12:15;;;;;;;14.57;2.83;;;;;;;37.97;26.13;100661.81;5106194;28;20043;-63
2022/06/26 03:14:42;;;;;;;20.27;3.15;;;;;;;37.91;26.31;100680.66;5098554;28;20035;-63
2022/06/26 03:17:09;;;;;;;16.85;3.53;;;;;;;37.83;26.20;100679.28;5096875;28;20028;-63
2022/06/26 03:19:35;;;;;;;21.75;3.50;;;;;;;37.79;26.55;100684.28;5101756;28;20049;-63
2022/06/26 03:22:05;;;;;;;20.70;3.72;;;;;;;37.70;26.59;100689.78;5101841;28;20583;-62
2022/06/26 03:24:33;;;;;;;23.70;4.45;;;;;;;37.60;27.17;100693.78;5095134;28;20066;-64
2022/06/26 03:27:01;;;;;;;19.05;3.83;;;;;;;37.49;27.88;100703.38;5113082;27;20039;-62
2022/06/26 03:29:28;;;;;;;23.65;4.60;;;;;;;37.36;28.23;100713.13;5088604;28;20026;-64
2022/06/26 03:31:55;;;;;;;21.38;4.45;;;;;;;37.22;28.01;100703.75;5094802;28;20051;-63
2022/06/26 03:34:22;;;;;;;24.85;4.57;;;;;;;37.03;29.03;100718.88;5095009;28;20482;-63
2022/06/26 03:36:49;;;;;;;36.75;4.75;;;;;;;36.89;29.73;100719.25;5097794;28;20039;-61
2022/06/26 03:39:16;;;;;;;33.45;4.80;;;;;;;36.82;29.85;100725.13;5094476;28;20051;-63
2022/06/26 03:41:58;;;;;;;23.98;4.72;;;;;;;36.63;30.32;100726.81;5099556;28;20031;-61
2022/06/26 03:44:29;;;;;;;20.95;4.00;;;;;;;36.48;30.23;100734.06;5090746;28;20036;-62
2022/06/26 03:46:57;;;;;;;24.40;4.32;;;;;;;36.41;30.90;100743.53;5092587;28;20136;-63
2022/06/26 03:49:25;;;;;;;25.88;4.70;;;;;;;36.14;31.57;100745.78;5092922;28;20035;-63
2022/06/26 03:51:52;;;;;;;30.17;5.75;;;;;;;36.08;32.30;100744.69;5092183;28;20032;-62
2022/06/26 03:54:19;;;;;;;19.02;5.95;;;;;;;35.94;31.66;100746.63;5093044;28;20036;-62
2022/06/26 03:56:47;;;;;;;30.55;6.45;;;;;;;35.90;32.81;100750.75;5093030;28;20085;-62
2022/06/26 03:59:16;;;;;;;23.27;6.40;;;;;;;35.71;32.64;100755.97;5096591;27;20065;-61
2022/06/26 04:01:43;;;;;;;26.35;6.13;;;;;;;35.54;33.27;100771.28;5093109;28;20076;-62
2022/06/26 04:04:09;;;;;;;27.02;6.70;;;;;;;35.52;34.05;100768.09;5095011;28;20489;-63
2022/06/26 04:06:36;;;;;;;24.83;5.97;;;;;;;35.48;33.92;100770.22;5095109;28;20077;-63
2022/06/26 04:09:11;;;;;;;18.58;6.60;;;;;;;35.45;34.40;100776.75;5093455;28;20032;-63
2022/06/26 04:11:38;;;;;;;24.20;6.00;;;;;;;35.39;34.36;100778.50;5091880;28;20036;-63
2022/06/26 04:14:04;;;;;;;23.02;5.05;;;;;;;35.34;34.44;100788.22;5092375;28;20023;-62
2022/06/26 04:16:33;;;;;;;26.00;4.80;;;;;;;35.33;34.86;100805.59;5092973;28;20032;-62
2022/06/26 04:19:00;;;;;;;27.58;5.15;;;;;;;35.18;35.12;100798.63;5095686;28;20042;-61
2022/06/26 04:21:27;;;;;;;21.80;4.18;;;;;;;35.03;35.61;100810.22;5089996;28;20032;-61
2022/06/26 04:23:56;;;;;;;32.13;4.70;;;;;;;34.95;35.74;100816.41;5090574;28;20115;-62
2022/06/26 04:26:23;;;;;;;28.73;4.40;;;;;;;34.90;35.82;100803.56;5089989;28;20046;-62
2022/06/26 04:28:50;;;;;;;24.85;4.38;;;;;;;34.84;36.44;100822.22;5095988;28;20032;-61
2022/06/26 04:31:17;;;;;;;45.45;5.15;;;;;;;34.71;37.21;100830.47;5089698;28;20138;-63
2022/06/26 04:33:49;;;;;;;31.80;4.85;;;;;;;34.72;37.14;100842.56;5092513;28;20173;-62
2022/06/26 04:36:16;;;;;;;29.20;4.03;;;;;;;34.72;37.16;100853.88;5093458;28;20051;-61
2022/06/26 04:38:43;;;;;;;24.00;3.00;;;;;;;34.56;37.82;100862.19;5092784;28;20050;-62
2022/06/26 04:43:56;;;;;;;16.60;2.55;;;;;;;34.47;36.38;100863.53;5100513;28;20120;-62
2022/06/26 04:46:24;;;;;;;12.05;2.00;;;;;;;34.56;35.12;100868.63;5096470;28;20028;-60
2022/06/26 04:48:52;;;;;;;11.93;2.30;;;;;;;34.47;35.37;100868.34;5093372;28;20035;-62
2022/06/26 04:51:20;;;;;;;15.43;2.45;;;;;;;34.58;34.93;100871.03;5098168;28;20036;-60
2022/06/26 04:53:47;;;;;;;11.75;2.47;;;;;;;34.50;34.90;100871.13;5101464;28;20039;-64
2022/06/26 04:56:14;;;;;;;17.45;2.20;;;;;;;34.47;34.64;100865.53;5110147;28;20102;-61
2022/06/26 04:58:49;;;;;;;14.07;2.35;;;;;;;34.61;34.43;100873.00;5095763;28;20062;-61
2022/06/26 05:01:17;;;;;;;13.02;2.50;;;;;;;34.49;34.72;100872.38;5105297;27;20077;-60
2022/06/26 05:04:12;;;;;;;16.95;2.40;;;;;;;34.37;34.86;100870.13;5091699;28;20020;-62
2022/06/26 05:07:05;;;;;;;11.82;2.60;;;;;;;34.34;34.94;100882.22;5092827;28;20544;-63
2022/06/26 05:09:36;;;;;;;17.05;2.78;;;;;;;34.35;34.87;100883.84;5092061;28;20124;-61
2022/06/26 05:12:07;;;;;;;13.20;2.40;;;;;;;34.33;35.20;100883.44;5089475;28;20489;-62
2022/06/26 05:14:52;;;;;;;11.55;2.20;;;;;;;34.31;35.52;100885.91;5093402;28;20509;-62
2022/06/26 05:17:27;;;;;;;18.25;2.50;;;;;;;34.18;36.05;100891.28;5097663;28;20036;-63
2022/06/26 05:19:54;;;;;;;12.63;2.63;;;;;;;34.24;35.55;100900.09;5087716;28;20035;-63
2022/06/26 05:22:24;;;;;;;67.25;4.10;;;;;;;34.14;35.60;100909.50;5096307;28;20124;-62
2022/06/26 05:24:51;;;;;;;17.77;2.40;;;;;;;34.14;36.41;100923.59;5096725;28;20448;-63
2022/06/26 05:27:17;;;;;;;39.97;3.40;;;;;;;33.84;38.09;100925.16;5091515;28;20020;-62
2022/06/26 05:29:44;;;;;;;127.00;6.95;;;;;;;33.71;39.52;100926.84;5102510;28;20363;-63
2022/06/26 05:32:11;;;;;;;14.05;2.60;;;;;;;33.53;40.01;100929.06;5103277;28;20149;-63
2022/06/26 05:34:38;;;;;;;43.38;4.35;;;;;;;33.54;41.24;100920.19;5089968;28;20032;-61
2022/06/26 05:37:05;;;;;;;11.15;2.63;;;;;;;33.42;39.97;100919.91;5093765;28;20405;-63
2022/06/26 05:39:32;;;;;;;26.67;4.50;;;;;;;33.35;40.02;100921.56;5100628;28;20031;-62
2022/06/26 05:41:59;;;;;;;23.02;4.13;;;;;;;33.28;39.51;100921.59;5100719;28;20055;-62
2022/06/26 05:44:26;;;;;;;17.75;4.07;;;;;;;33.32;38.26;100930.84;5090056;28;20046;-62
2022/06/26 05:46:52;;;;;;;17.40;3.10;;;;;;;33.42;36.95;100934.00;5092594;28;20389;-63
2022/06/26 05:49:39;;;;;;;18.10;2.92;;;;;;;33.37;37.24;100942.88;5092110;28;20040;-62
2022/06/26 05:52:41;;;;;;;23.15;2.70;;;;;;;33.39;37.75;100948.91;5050670;28;20111;-63
2022/06/26 05:55:40;;;;;;;17.05;2.55;;;;;;;33.32;37.69;100946.94;5051849;28;20055;-62
2022/06/26 05:58:25;;;;;;;12.38;2.55;;;;;;;33.25;39.10;100949.81;5088171;28;20401;-62
2022/06/26 06:01:14;;;;;;;15.63;2.22;;;;;;;33.15;39.26;100956.31;5079072;28;20135;-62
2022/06/26 06:03:45;;;;;;;10.65;2.28;;;;;;;33.12;39.07;100955.13;5088742;28;20113;-63
2022/06/26 06:06:13;;;;;;;7.47;2.10;;;;;;;33.06;38.27;100956.78;5088274;28;20074;-61
2022/06/26 06:08:39;;;;;;;39.33;3.17;;;;;;;33.16;38.54;100955.91;5069141;28;20032;-61
2022/06/26 06:11:06;;;;;;;9.88;2.15;;;;;;;33.16;38.74;100953.09;5094857;28;20040;-62
2022/06/26 06:13:33;;;;;;;9.32;2.25;;;;;;;33.06;38.55;100942.72;5090096;28;20048;-60
2022/06/26 06:16:00;;;;;;;10.27;2.08;;;;;;;33.15;38.32;100943.03;5092142;28;20498;-63
2022/06/26 06:18:26;;;;;;;9.63;2.20;;;;;;;33.16;37.96;100947.44;5091429;28;20028;-65
2022/06/26 06:20:53;;;;;;;8.55;2.33;;;;;;;33.06;37.66;100937.09;5092402;28;20035;-62
2022/06/26 06:23:20;;;;;;;9.43;2.17;;;;;;;32.99;38.72;100942.75;5095474;28;20031;-62
2022/06/26 06:25:47;;;;;;;18.58;2.40;;;;;;;32.98;38.53;100935.53;5080007;28;20509;-63
2022/06/26 06:28:14;;;;;;;13.77;2.20;;;;;;;33.00;38.72;100938.72;5096142;28;20039;-62
2022/06/26 06:30:41;;;;;;;10.60;2.10;;;;;;;32.98;39.36;100924.25;5091961;28;20032;-62
2022/06/26 06:33:08;;;;;;;9.07;2.42;;;;;;;32.92;39.91;100931.53;5092870;28;20036;-60
2022/06/26 06:35:41;;;;;;;13.07;2.45;;;;;;;32.86;39.68;100925.56;5093622;28;20036;-59
2022/06/26 06:38:09;;;;;;;11.73;2.40;;;;;;;32.73;40.25;100930.84;5094751;28;20028;-60
2022/06/26 06:40:37;;;;;;;8.73;2.25;;;;;;;32.75;40.46;100928.41;5094508;28;20054;-60
2022/06/26 06:43:09;;;;;;;9.45;2.20;;;;;;;32.78;40.32;100938.03;5095402;28;20034;-60
2022/06/26 06:45:55;;;;;;;5.80;2.40;;;;;;;32.58;41.19;100929.31;5093730;28;20050;-60
2022/06/26 06:48:24;;;;;;;9.18;2.25;;;;;;;32.47;41.64;100920.91;5093849;28;20516;-60
2022/06/26 06:51:09;;;;;;;9.68;2.35;;;;;;;32.41;41.08;100925.38;5095653;28;20046;-60
2022/06/26 06:53:36;;;;;;;7.68;1.98;;;;;;;32.60;40.51;100924.06;5093794;28;20653;-60
2022/06/26 06:56:03;;;;;;;10.82;2.35;;;;;;;32.44;41.07;100929.38;5093459;28;20020;-59
2022/06/26 06:58:29;;;;;;;12.10;2.78;;;;;;;32.43;42.23;100933.41;5094281;28;20123;-62
2022/06/26 07:00:56;;;;;;;9.15;1.90;;;;;;;32.45;41.27;100928.97;5095242;28;20437;-59
2022/06/26 07:03:24;;;;;;;8.02;2.58;;;;;;;32.41;41.52;100931.00;5096945;28;20028;-60
2022/06/26 07:05:50;;;;;;;8.77;2.25;;;;;;;32.28;41.99;100937.47;5099874;28;20039;-62
2022/06/26 07:08:17;;;;;;;9.60;2.53;;;;;;;32.42;41.58;100932.59;5096348;28;20071;-61
2022/06/26 07:10:44;;;;;;;7.00;2.38;;;;;;;32.31;42.63;100934.66;5068479;28;20084;-63
2022/06/26 07:13:11;;;;;;;9.50;2.55;;;;;;;32.20;42.80;100936.69;5073384;28;20036;-63
2022/06/26 07:15:38;;;;;;;9.45;2.22;;;;;;;32.27;43.51;100933.06;5077044;28;20381;-62
2022/06/26 07:18:04;;;;;;;8.75;2.38;;;;;;;32.16;44.23;100939.53;5080255;28;20107;-64
2022/06/26 07:20:31;;;;;;;10.85;2.20;;;;;;;31.99;44.71;100937.56;5078962;28;20036;-61
2022/06/26 07:22:58;;;;;;;16.00;2.90;;;;;;;31.87;45.33;100940.81;5079699;28;20097;-62
2022/06/26 07:25:51;;;;;;;11.57;2.55;;;;;;;32.03;45.28;100943.97;5075779;28;20159;-62
2022/06/26 07:28:20;;;;;;;10.23;3.10;;;;;;;31.89;47.30;100943.22;5079528;28;20115;-63
2022/06/26 07:30:47;;;;;;;11.63;2.70;;;;;;;31.68;47.63;100946.84;5081076;28;20486;-63
2022/06/26 07:35:59;;;;;;;8.48;3.20;;;;;;;31.44;49.51;100946.47;5076823;28;20032;-63
2022/06/26 07:38:25;;;;;;;16.13;4.22;;;;;;;31.33;50.77;100944.84;5085840;28;20397;-62
2022/06/26 07:40:53;;;;;;;12.70;4.10;;;;;;;31.24;51.90;100948.06;5096429;28;20032;-62
2022/06/26 07:43:22;;;;;;;11.48;3.58;;;;;;;31.09;52.70;100936.00;5096044;28;20050;-61
2022/06/26 07:45:49;;;;;;;9.52;3.30;;;;;;;31.00;53.14;100946.00;5093995;28;20016;-61
2022/06/26 07:48:17;;;;;;;12.43;3.60;;;;;;;31.02;53.36;100941.59;5095422;28;20036;-60
2022/06/26 07:50:44;;;;;;;8.52;3.00;;;;;;;30.96;53.98;100949.59;5095686;28;20090;-62
2022/06/26 07:53:11;;;;;;;12.07;3.28;;;;;;;30.86;54.02;100949.56;5094607;28;20042;-61
2022/06/26 07:55:37;;;;;;;11.15;3.20;;;;;;;30.91;53.87;100954.81;5095764;28;20026;-61
2022/06/26 07:58:04;;;;;;;13.68;3.25;;;;;;;30.80;54.49;100957.59;5096670;28;20028;-62
2022/06/26 08:00:31;;;;;;;10.90;3.20;;;;;;;30.79;54.71;100955.97;5097713;28;20103;-62
2022/06/26 08:03:09;;;;;;;8.57;2.78;;;;;;;30.91;55.30;100958.44;5096595;28;20489;-62
2022/06/26 08:05:36;;;;;;;8.73;3.10;;;;;;;30.90;55.90;100968.03;5092158;28;20035;-63
2022/06/26 08:08:04;;;;;;;8.07;2.90;;;;;;;30.82;56.59;100960.78;5094259;28;20103;-62
2022/06/26 08:10:31;;;;;;;8.55;3.10;;;;;;;30.69;57.22;100945.53;5093114;28;20036;-61
2022/06/26 08:12:58;;;;;;;10.15;3.25;;;;;;;30.60;57.46;100943.06;5094569;28;20051;-61
2022/06/26 08:15:25;;;;;;;11.40;3.45;;;;;;;30.61;57.98;100955.09;5092184;28;20471;-61
2022/06/26 08:17:51;;;;;;;12.10;3.40;;;;;;;30.62;58.01;100954.72;5096683;28;20024;-61
2022/06/26 08:20:18;;;;;;;10.57;3.50;;;;;;;30.50;58.42;100957.84;5096416;28;20036;-61
2022/06/26 08:22:45;;;;;;;10.00;3.35;;;;;;;30.51;58.65;100965.06;5096379;28;20024;-63
2022/06/26 08:25:12;;;;;;;9.73;3.55;;;;;;;30.36;58.81;100967.03;5093057;28;20076;-62
2022/06/26 08:27:39;;;;;;;10.35;3.30;;;;;;;30.26;59.51;100967.78;5095285;28;20474;-63
2022/06/26 08:30:09;;;;;;;15.80;3.60;;;;;;;30.26;59.98;100967.78;5096536;28;20035;-61
2022/06/26 08:32:37;;;;;;;8.55;3.58;;;;;;;30.24;60.08;100964.56;5095082;28;20062;-61
2022/06/26 08:35:09;;;;;;;13.70;3.60;;;;;;;30.34;59.05;100969.44;5089259;28;20454;-61
2022/06/26 08:37:36;;;;;;;7.90;3.22;;;;;;;30.26;59.78;100976.19;5107214;28;20062;-62
2022/06/26 08:40:03;;;;;;;8.20;3.08;;;;;;;30.23;59.64;100976.97;5087803;28;20523;-60
2022/06/26 08:42:31;;;;;;;10.20;3.38;;;;;;;30.20;59.93;100980.56;5103019;28;20069;-62
2022/06/26 08:44:59;;;;;;;13.18;3.67;;;;;;;30.27;59.40;100986.22;5107122;28;20032;-62
2022/06/26 08:47:30;;;;;;;9.77;2.95;;;;;;;30.13;59.90;100969.31;5108905;28;20115;-62
2022/06/26 08:49:58;;;;;;;10.57;3.30;;;;;;;30.26;59.09;100981.81;5103153;28;20036;-62
2022/06/26 08:52:29;;;;;;;6.88;2.80;;;;;;;30.31;59.66;100984.22;5100214;28;20028;-62
2022/06/26 08:54:57;;;;;;;12.27;3.33;;;;;;;30.19;59.87;100978.97;5108990;28;20036;-60
2022/06/26 08:57:25;;;;;;;11.18;3.58;;;;;;;30.22;60.46;100980.19;5099049;28;20023;-61
2022/06/26 08:59:52;;;;;;;7.57;3.22;;;;;;;30.11;58.85;100982.91;5104286;28;20474;-62
2022/06/26 09:02:18;;;;;;;10.57;3.53;;;;;;;30.01;60.83;100983.63;5106374;28;20038;-63
2022/06/26 09:04:45;;;;;;;13.77;3.72;;;;;;;29.89;61.40;100986.75;5095636;28;20511;-61
2022/06/26 09:07:13;;;;;;;12.32;3.38;;;;;;;29.96;61.43;100979.19;5087063;28;20036;-63
2022/06/26 09:09:44;;;;;;;9.55;3.15;;;;;;;30.15;60.46;100972.50;5093177;28;20036;-61
2022/06/26 09:12:14;;;;;;;9.15;3.00;;;;;;;30.15;60.35;100980.94;5093178;28;20027;-62
2022/06/26 09:14:44;;;;;;;9.63;3.05;;;;;;;30.22;59.79;100978.19;5092323;28;20043;-60
2022/06/26 09:17:13;;;;;;;8.85;2.85;;;;;;;30.08;60.74;100983.69;5091896;28;20039;-60
2022/06/26 09:19:43;;;;;;;9.93;2.90;;;;;;;30.07;61.17;100988.50;5092623;28;20027;-60
2022/06/26 09:22:13;;;;;;;12.07;3.15;;;;;;;29.99;61.68;100991.63;5092232;28;20039;-60
2022/06/26 09:24:53;;;;;;;9.38;3.25;;;;;;;29.97;62.18;100988.41;5093358;28;20417;-62
2022/06/26 09:27:21;;;;;;;7.45;2.88;;;;;;;29.99;62.39;100992.44;5076887;28;20506;-61
2022/06/26 09:29:51;;;;;;;10.15;3.53;;;;;;;29.90;62.59;100989.16;5092943;28;20089;-61
2022/06/26 09:32:22;;;;;;;10.90;3.25;;;;;;;29.85;62.78;100991.53;5090654;28;20055;-60
2022/06/26 09:34:53;;;;;;;8.93;3.22;;;;;;;29.81;63.11;100990.72;5093616;28;20031;-61
2022/06/26 09:37:23;;;;;;;6.43;2.50;;;;;;;29.75;63.00;100999.47;5108571;28;20047;-62
2022/06/26 09:40:00;;;;;;;14.57;3.35;;;;;;;29.67;63.92;100995.00;5099960;28;20027;-61
2022/06/26 09:42:28;;;;;;;7.90;2.92;;;;;;;29.77;63.01;100987.88;5097285;28;20068;-62
2022/06/26 09:44:59;;;;;;;10.45;3.13;;;;;;;29.72;62.85;100986.22;5107161;28;20493;-62
2022/06/26 09:47:46;;;;;;;14.27;4.28;;;;;;;29.74;62.63;100991.44;5098261;28;20425;-61
2022/06/26 09:50:13;;;;;;;14.55;4.18;;;;;;;29.67;62.97;100980.19;5098955;28;20131;-62
2022/06/26 09:52:43;;;;;;;9.60;4.15;;;;;;;29.59;63.43;100992.53;5107892;28;20051;-63
2022/06/26 09:55:12;;;;;;;10.15;3.55;;;;;;;29.52;62.85;100990.47;5079314;28;20024;-62
2022/06/26 09:57:39;;;;;;;11.38;2.67;;;;;;;29.53;63.69;100996.88;5105611;28;20059;-61
2022/06/26 10:00:10;;;;;;;10.75;3.10;;;;;;;29.44;63.70;100989.59;5099870;28;20039;-61
2022/06/26 10:08:24;;;;;;;10.43;2.70;;;;;;;29.37;63.42;100980.31;5099301;28;20136;-63
2022/06/26 10:10:52;;;;;;;9.88;2.97;;;;;;;29.33;64.35;100990.69;5109183;28;20488;-60
2022/06/26 10:13:23;;;;;;;12.70;3.45;;;;;;;29.35;64.55;100991.09;5091073;28;20051;-60
2022/06/26 10:16:06;;;;;;;10.25;3.08;;;;;;;29.27;64.93;101001.44;5100510;28;20036;-59
2022/06/26 10:19:06;;;;;;;11.18;2.97;;;;;;;29.17;66.06;101005.72;5097474;28;20034;-61
2022/06/26 10:21:38;;;;;;;10.20;2.70;;;;;;;29.08;65.97;101013.63;5083957;28;20121;-59
2022/06/26 10:24:09;;;;;;;12.13;3.30;;;;;;;29.02;66.19;101011.56;5101206;28;20490;-60
2022/06/26 10:26:51;;;;;;;15.07;3.05;;;;;;;29.02;66.22;101012.38;5108058;28;20047;-60
2022/06/26 10:29:18;;;;;;;14.23;3.58;;;;;;;28.99;65.53;101012.34;5081255;28;20039;-61
2022/06/26 10:31:49;;;;;;;17.23;5.20;;;;;;;29.10;66.07;101014.06;5103813;28;20040;-61
2022/06/26 10:34:21;;;;;;;14.05;5.75;;;;;;;28.96;66.73;101008.31;5099380;28;20105;-60
2022/06/26 10:37:01;;;;;;;13.82;5.72;;;;;;;28.81;67.45;101000.91;5108767;28;20428;-60
2022/06/26 10:39:45;;;;;;;17.42;6.35;;;;;;;28.95;67.10;101009.50;5098479;28;20114;-60
2022/06/26 10:45:22;;;;;;;12.80;6.10;;;;;;;28.74;68.15;100995.25;5108756;28;20079;-60
2022/06/26 10:47:56;;;;;;;14.43;6.97;;;;;;;28.71;67.35;101004.38;5101349;28;20044;-59
2022/06/26 10:50:27;;;;;;;18.00;7.50;;;;;;;28.63;67.19;101002.69;5095893;28;20085;-61
2022/06/26 10:53:10;;;;;;;11.32;5.90;;;;;;;28.58;67.00;101013.03;5107930;28;20569;-59
2022/06/26 10:55:41;;;;;;;12.23;5.03;;;;;;;28.51;65.31;101015.72;5099366;28;20040;-59
2022/06/26 10:58:18;;;;;;;10.48;3.80;;;;;;;28.54;64.11;101025.34;5098718;28;20491;-60
2022/06/26 11:00:47;;;;;;;9.73;3.80;;;;;;;28.58;65.22;101023.41;5100869;28;20036;-60
2022/06/26 11:03:19;;;;;;;13.45;4.00;;;;;;;28.61;64.62;101038.63;5111739;28;20047;-60
2022/06/26 11:06:08;;;;;;;10.40;3.40;;;;;;;28.52;64.06;101022.91;5095440;28;20494;-59
2022/06/26 11:08:37;;;;;;;16.15;4.32;;;;;;;28.47;64.50;101014.88;5111039;28;20044;-59
2022/06/26 11:11:30;;;;;;;16.15;5.18;;;;;;;28.53;64.18;101018.13;5098764;28;20040;-60
2022/06/26 11:14:02;;;;;;;17.52;7.25;;;;;;;28.47;66.21;101019.66;5106917;28;20164;-60
2022/06/26 11:16:29;;;;;;;16.38;7.13;;;;;;;28.50;66.29;101018.91;5100894;28;20443;-60
2022/06/26 11:18:57;;;;;;;18.88;6.95;;;;;;;28.48;66.58;101016.50;5112465;28;20065;-60
2022/06/26 11:21:24;;;;;;;17.20;5.30;;;;;;;28.40;66.61;101014.78;5100830;28;20031;-59
2022/06/26 11:23:53;;;;;;;13.68;5.63;;;;;;;28.46;66.63;101024.44;5106562;28;20433;-59
2022/06/26 11:26:22;;;;;;;13.30;6.30;;;;;;;28.41;65.38;101027.59;5107409;28;20056;-60
2022/06/26 11:29:01;;;;;;;11.13;4.85;;;;;;;28.36;67.06;101029.88;5080836;28;20030;-60
2022/06/26 11:31:33;;;;;;;11.18;4.90;;;;;;;28.26;68.47;101026.56;5107466;28;20039;-60
2022/06/26 11:34:15;;;;;;;14.77;5.13;;;;;;;28.34;68.02;101026.66;5104634;28;20063;-60
2022/06/26 11:37:12;;;;;;;15.43;6.22;;;;;;;28.25;69.01;101018.53;5110547;28;20039;-59
2022/06/26 11:39:41;;;;;;;16.17;6.88;;;;;;;28.13;69.33;101018.75;5098292;28;20044;-60
2022/06/26 11:42:23;;;;;;;15.00;5.57;;;;;;;28.06;69.66;101027.84;5103631;28;20486;-62
2022/06/26 11:44:55;;;;;;;19.20;7.57;;;;;;;28.13;69.96;101039.13;5110360;28;20035;-60
2022/06/26 11:47:22;;;;;;;21.00;7.32;;;;;;;28.00;67.74;101034.91;5100088;28;20035;-63
2022/06/26 11:49:52;;;;;;;36.30;29.42;;;;;;;28.03;68.98;101050.16;5104980;28;20036;-60
2022/06/26 11:52:20;;;;;;;26.92;14.52;;;;;;;27.90;69.97;101044.78;5108276;28;20108;-61